Time;durP1;ratioP1;P1;durP2;ratioP2;P2;SDS_P1;SDS_P2;PMS_P1;PMS_P2;Temp;Humidity;BMP_temperature;BMP_pressure;BME280_temperature;BME280_humidity;BME280_pressure;Samples;Min_cycle;Max_cycle;Signal;HPM_P1;HPM_P2
2022/05/09 00:00:13;;;;;;;2.85;1.15;;;;;;;6.63;100.00;99271.22;5132917;28;20051;-60
2022/05/09 00:02:40;;;;;;;1.98;0.95;;;;;;;6.78;100.00;99254.22;5132852;27;20065;-59
2022/05/09 00:05:08;;;;;;;4.78;0.80;;;;;;;6.71;100.00;99270.31;5132729;28;20411;-59
2022/05/09 00:07:36;;;;;;;1.30;0.80;;;;;;;6.59;100.00;99276.50;5132884;28;20464;-59
2022/05/09 00:10:02;;;;;;;1.90;0.95;;;;;;;6.65;100.00;99257.25;5132406;28;20043;-59
2022/05/09 00:12:30;;;;;;;2.22;1.10;;;;;;;6.55;100.00;99247.56;5130958;28;20095;-60
2022/05/09 00:14:56;;;;;;;3.95;1.17;;;;;;;6.62;100.00;99264.16;5132378;28;20043;-59
2022/05/09 00:17:22;;;;;;;6.05;1.10;;;;;;;6.51;100.00;99266.50;5132563;28;20059;-59
2022/05/09 00:19:49;;;;;;;6.03;1.00;;;;;;;6.45;100.00;99254.22;5132561;28;20054;-59
2022/05/09 00:22:15;;;;;;;2.67;1.10;;;;;;;6.39;100.00;99271.91;5132319;28;20050;-59
2022/05/09 00:24:42;;;;;;;1.05;0.80;;;;;;;6.46;100.00;99258.53;5132457;28;20051;-59
2022/05/09 00:27:08;;;;;;;0.95;0.80;;;;;;;6.21;100.00;99276.69;5132321;28;20044;-59
2022/05/09 00:29:34;;;;;;;2.35;0.80;;;;;;;6.14;100.00;99249.22;5132743;28;20054;-59
2022/05/09 00:32:00;;;;;;;2.60;1.20;;;;;;;6.18;100.00;99238.47;5132632;28;20628;-59
2022/05/09 00:34:27;;;;;;;4.47;1.00;;;;;;;6.16;100.00;99238.00;5132493;28;20051;-60
2022/05/09 00:36:55;;;;;;;2.08;0.80;;;;;;;6.04;100.00;99239.53;5132186;28;20072;-59
2022/05/09 00:39:22;;;;;;;2.28;0.75;;;;;;;6.02;100.00;99243.72;5132381;28;20047;-59
2022/05/09 00:41:49;;;;;;;0.70;0.70;;;;;;;6.09;100.00;99241.25;5132089;28;20051;-59
2022/05/09 00:44:21;;;;;;;0.80;0.80;;;;;;;5.89;100.00;99246.31;5132629;28;20055;-59
2022/05/09 00:46:50;;;;;;;3.58;1.13;;;;;;;5.71;100.00;99239.44;5132261;28;20115;-60
2022/05/09 00:49:21;;;;;;;0.70;0.70;;;;;;;5.63;100.00;99213.88;5131919;28;20276;-59
2022/05/09 00:51:57;;;;;;;2.67;0.80;;;;;;;5.59;100.00;99209.41;5132310;28;20085;-59
2022/05/09 00:54:23;;;;;;;0.93;0.80;;;;;;;5.59;100.00;99212.94;5131898;28;20047;-59
2022/05/09 00:56:58;;;;;;;1.95;0.95;;;;;;;5.68;100.00;99209.38;5132162;28;20047;-59
2022/05/09 00:59:25;;;;;;;2.47;0.95;;;;;;;5.58;100.00;99208.63;5131812;28;20550;-60
2022/05/09 01:01:51;;;;;;;2.10;1.05;;;;;;;5.56;100.00;99208.16;5131853;28;20051;-60
2022/05/09 01:04:21;;;;;;;1.13;0.70;;;;;;;5.57;100.00;99226.09;5131585;28;20043;-59
2022/05/09 01:06:48;;;;;;;2.30;1.10;;;;;;;5.38;100.00;99221.06;5131567;28;20054;-59
2022/05/09 01:09:14;;;;;;;2.47;0.90;;;;;;;5.33;100.00;99204.13;5131631;28;20043;-59
2022/05/09 01:11:43;;;;;;;2.33;0.98;;;;;;;5.23;100.00;99201.81;5131486;28;20054;-59
2022/05/09 01:14:14;;;;;;;1.23;0.70;;;;;;;5.24;100.00;99195.25;5131269;27;20043;-59
2022/05/09 01:16:41;;;;;;;2.65;0.93;;;;;;;5.24;100.00;99182.47;5131424;28;20502;-59
2022/05/09 01:19:23;;;;;;;2.45;0.90;;;;;;;5.19;100.00;99191.59;5131768;28;20051;-59
2022/05/09 01:21:49;;;;;;;0.80;0.80;;;;;;;5.15;100.00;99193.38;5131316;28;20062;-59
2022/05/09 01:24:18;;;;;;;3.08;1.00;;;;;;;5.06;100.00;99183.66;5131495;28;20062;-59
2022/05/09 01:26:44;;;;;;;1.02;0.85;;;;;;;4.91;100.00;99185.81;5131264;28;20433;-59
2022/05/09 01:29:17;;;;;;;1.98;0.82;;;;;;;4.87;100.00;99176.75;5131419;28;20050;-59
2022/05/09 01:31:43;;;;;;;1.60;1.10;;;;;;;4.80;100.00;99162.88;5131293;28;20088;-60
2022/05/09 01:34:12;;;;;;;3.35;0.70;;;;;;;4.91;100.00;99177.66;5131341;28;20051;-59
2022/05/09 01:36:39;;;;;;;1.02;0.90;;;;;;;4.83;100.00;99178.53;5131150;28;20047;-60
2022/05/09 01:39:07;;;;;;;1.80;1.30;;;;;;;4.72;100.00;99183.50;5131157;28;20050;-59
2022/05/09 01:41:37;;;;;;;1.88;0.80;;;;;;;4.68;100.00;99182.56;5131521;28;20426;-59
2022/05/09 01:44:04;;;;;;;1.63;1.00;;;;;;;4.62;100.00;99173.00;5130965;28;20053;-59
2022/05/09 01:46:31;;;;;;;1.20;0.90;;;;;;;4.65;100.00;99174.25;5131446;28;20046;-59
2022/05/09 01:51:59;;;;;;;1.13;0.80;;;;;;;4.71;100.00;99159.38;5047653;28;20049;-60
2022/05/09 01:54:26;;;;;;;2.05;1.00;;;;;;;4.86;100.00;99177.03;5047772;28;20049;-59
2022/05/09 01:56:52;;;;;;;1.15;0.88;;;;;;;4.89;100.00;99179.13;5085117;28;20066;-59
2022/05/09 01:59:19;;;;;;;4.18;1.00;;;;;;;4.81;100.00;99198.97;5131079;28;20501;-59
2022/05/09 02:01:47;;;;;;;0.80;0.80;;;;;;;4.75;100.00;99194.84;5130680;28;20510;-59
2022/05/09 02:04:13;;;;;;;0.77;0.77;;;;;;;4.62;100.00;99199.34;5131022;28;20043;-59
2022/05/09 02:06:40;;;;;;;4.03;1.00;;;;;;;4.74;100.00;99187.81;5130898;28;20047;-59
2022/05/09 02:09:07;;;;;;;5.65;1.00;;;;;;;4.85;100.00;99180.91;5131218;28;20116;-59
2022/05/09 02:11:34;;;;;;;1.65;0.90;;;;;;;4.86;100.00;99194.13;5130730;28;20054;-59
2022/05/09 02:14:01;;;;;;;3.28;0.70;;;;;;;4.76;100.00;99191.78;5130844;28;20092;-59
2022/05/09 02:16:27;;;;;;;1.65;0.70;;;;;;;4.61;100.00;99195.84;5130716;28;20490;-59
2022/05/09 02:18:53;;;;;;;1.67;0.95;;;;;;;4.51;100.00;99182.63;5130640;28;20051;-59
2022/05/09 02:21:20;;;;;;;0.70;0.70;;;;;;;4.59;100.00;99178.28;5130697;28;20413;-59
2022/05/09 02:23:46;;;;;;;1.80;1.00;;;;;;;4.51;100.00;99193.47;5130392;28;20505;-59
2022/05/09 02:26:13;;;;;;;2.15;1.40;;;;;;;4.54;100.00;99190.13;5132155;27;20043;-59
2022/05/09 02:28:40;;;;;;;1.10;0.80;;;;;;;4.47;100.00;99181.69;5134480;28;20544;-59
2022/05/09 02:31:06;;;;;;;2.22;0.98;;;;;;;4.53;100.00;99180.34;5134347;28;20485;-59
2022/05/09 02:33:32;;;;;;;2.05;0.75;;;;;;;4.40;100.00;99186.81;5134239;28;20635;-59
2022/05/09 02:35:59;;;;;;;1.33;0.88;;;;;;;4.35;100.00;99182.34;5134424;28;20498;-59
2022/05/09 02:38:27;;;;;;;3.60;0.80;;;;;;;4.36;100.00;99183.13;5133995;28;20047;-59
2022/05/09 02:40:53;;;;;;;0.75;0.75;;;;;;;4.25;100.00;99178.03;5133951;28;20047;-60
2022/05/09 02:43:19;;;;;;;2.83;0.50;;;;;;;4.36;100.00;99177.69;5134035;28;20047;-59
2022/05/09 02:45:47;;;;;;;0.73;0.73;;;;;;;4.31;100.00;99183.31;5133942;28;20058;-59
2022/05/09 02:48:13;;;;;;;2.03;1.35;;;;;;;4.59;100.00;99187.22;5134125;28;20050;-59
2022/05/09 02:50:39;;;;;;;2.05;1.05;;;;;;;5.23;100.00;99208.06;5133911;28;20502;-60
2022/05/09 02:53:07;;;;;;;1.25;0.80;;;;;;;5.90;100.00;99252.59;5134138;28;20050;-59
2022/05/09 02:55:34;;;;;;;5.47;0.80;;;;;;;6.42;100.00;99316.72;5133691;28;20406;-59
2022/05/09 02:58:01;;;;;;;1.63;0.98;;;;;;;6.77;100.00;99364.34;5134082;28;20501;-59
2022/05/09 03:00:29;;;;;;;1.23;1.00;;;;;;;7.06;100.00;99415.22;5133709;28;20362;-60
2022/05/09 03:05:43;;;;;;;2.53;0.98;;;;;;;7.54;100.00;99472.97;5133852;28;20176;-60
2022/05/09 03:08:11;;;;;;;0.95;0.90;;;;;;;7.95;100.00;99507.53;5133578;28;20422;-60
2022/05/09 03:10:38;;;;;;;2.15;0.73;;;;;;;8.11;100.00;99529.50;5133863;28;20059;-59
2022/05/09 03:13:06;;;;;;;1.00;0.80;;;;;;;8.40;100.00;99549.63;5133600;28;20047;-60
2022/05/09 03:15:36;;;;;;;0.88;0.80;;;;;;;8.90;100.00;99560.19;5133703;28;20051;-60
2022/05/09 03:18:03;;;;;;;3.80;0.70;;;;;;;9.28;100.00;99604.66;5133430;28;20055;-60
2022/05/09 03:20:29;;;;;;;1.48;0.95;;;;;;;9.22;100.00;99614.25;5133710;28;20095;-60
2022/05/09 03:22:55;;;;;;;3.08;1.17;;;;;;;9.59;100.00;99623.97;5133321;28;20054;-60
2022/05/09 03:25:22;;;;;;;4.00;0.90;;;;;;;9.84;100.00;99643.06;5133468;28;20043;-60
2022/05/09 03:27:48;;;;;;;1.58;0.90;;;;;;;10.02;100.00;99669.00;5133328;28;20058;-59
2022/05/09 03:30:16;;;;;;;2.05;0.77;;;;;;;10.05;100.00;99675.72;5133316;28;20055;-59
2022/05/09 03:32:44;;;;;;;1.20;0.80;;;;;;;10.21;100.00;99681.25;5133048;28;20058;-59
2022/05/09 03:35:11;;;;;;;1.02;0.68;;;;;;;10.34;100.00;99688.31;5133136;28;20537;-60
2022/05/09 03:37:38;;;;;;;2.08;0.85;;;;;;;10.39;100.00;99690.78;5132803;27;20494;-60
2022/05/09 03:40:06;;;;;;;1.88;0.60;;;;;;;10.87;100.00;99701.81;5133255;28;20047;-59
2022/05/09 03:42:32;;;;;;;2.05;0.80;;;;;;;10.84;100.00;99715.09;5133206;28;20055;-59
2022/05/09 03:44:58;;;;;;;1.17;0.80;;;;;;;10.78;100.00;99716.50;5132813;28;20050;-60
2022/05/09 03:47:25;;;;;;;1.30;0.85;;;;;;;11.18;100.00;99721.00;5133255;28;20494;-59
2022/05/09 03:49:54;;;;;;;2.80;0.80;;;;;;;11.39;100.00;99728.94;5133086;28;20054;-60
2022/05/09 03:52:21;;;;;;;1.55;0.73;;;;;;;11.38;100.00;99748.53;5133081;28;20115;-60
2022/05/09 03:54:47;;;;;;;2.30;0.70;;;;;;;11.73;100.00;99748.56;5132764;28;20054;-60
2022/05/09 03:57:13;;;;;;;1.67;0.90;;;;;;;12.25;100.00;99761.09;5132939;28;20054;-60
2022/05/09 03:59:39;;;;;;;6.97;1.00;;;;;;;12.66;100.00;99791.75;5132704;28;20051;-60
2022/05/09 04:02:06;;;;;;;1.27;0.80;;;;;;;12.58;100.00;99796.31;5132831;28;20043;-59
2022/05/09 04:04:32;;;;;;;3.20;1.00;;;;;;;12.37;100.00;99795.91;5132827;28;20054;-59
2022/05/09 04:06:58;;;;;;;1.02;0.65;;;;;;;12.81;100.00;99785.38;5132677;28;20047;-60
2022/05/09 04:09:25;;;;;;;4.93;0.90;;;;;;;12.77;100.00;99802.97;5132838;28;20051;-60
2022/05/09 04:11:51;;;;;;;2.60;0.88;;;;;;;12.57;100.00;99811.25;5132469;28;20055;-60
2022/05/09 04:16:49;;;;;;;3.05;0.95;;;;;;;13.10;100.00;99819.72;5132716;28;20498;-60
2022/05/09 04:17:04;;;;;;;1.48;0.70;;;;;;;13.63;100.00;99828.13;5132611;28;20157;-59
2022/05/09 04:19:30;;;;;;;2.25;0.80;;;;;;;13.83;100.00;99845.38;5132977;28;20468;-59
2022/05/09 04:21:57;;;;;;;1.38;1.08;;;;;;;13.69;100.00;99842.38;5132388;28;20055;-61
2022/05/09 04:24:24;;;;;;;2.75;0.80;;;;;;;13.66;100.00;99848.63;5132492;28;20051;-60
2022/05/09 04:26:50;;;;;;;0.75;0.70;;;;;;;13.63;100.00;99838.38;5132502;28;20051;-60
2022/05/09 04:29:17;;;;;;;1.63;0.82;;;;;;;13.82;100.00;99840.22;5132277;28;20043;-60
2022/05/09 04:31:43;;;;;;;1.15;0.73;;;;;;;14.45;100.00;99847.81;5132582;28;20455;-60
2022/05/09 04:34:09;;;;;;;7.43;0.98;;;;;;;14.77;100.00;99852.97;5132222;28;20047;-60
2022/05/09 04:36:38;;;;;;;2.05;0.90;;;;;;;14.89;100.00;99866.50;5132156;28;20047;-60
2022/05/09 04:39:04;;;;;;;2.78;1.00;;;;;;;15.10;98.69;99876.22;5132138;28;20051;-60
2022/05/09 04:41:32;;;;;;;1.95;0.95;;;;;;;15.20;100.00;99881.88;5132293;28;20047;-60
2022/05/09 04:43:59;;;;;;;2.60;1.30;;;;;;;15.38;98.10;99876.50;5132103;28;20107;-60
2022/05/09 04:46:26;;;;;;;3.13;1.13;;;;;;;14.91;97.58;99879.97;5131986;28;20047;-60
2022/05/09 04:48:52;;;;;;;0.65;0.65;;;;;;;14.81;99.10;99879.44;5131095;27;20058;-60
2022/05/09 04:51:19;;;;;;;3.38;0.90;;;;;;;15.48;99.59;99881.34;5132088;28;20047;-60
2022/05/09 04:53:47;;;;;;;2.67;1.13;;;;;;;15.64;97.97;99897.69;5131812;28;20051;-60
2022/05/09 04:56:13;;;;;;;1.55;0.80;;;;;;;15.52;94.59;99897.94;5131862;28;20056;-60
2022/05/09 04:58:40;;;;;;;1.52;0.82;;;;;;;15.47;94.63;99901.88;5132085;28;20413;-60
2022/05/09 05:01:06;;;;;;;2.22;1.35;;;;;;;15.82;96.42;99897.84;5131884;28;20058;-60
2022/05/09 05:03:32;;;;;;;4.25;1.17;;;;;;;16.03;94.00;99907.50;5132157;28;20051;-59
2022/05/09 05:05:58;;;;;;;5.45;1.00;;;;;;;16.42;93.52;99908.56;5131712;28;20051;-60
2022/05/09 05:08:24;;;;;;;2.63;1.00;;;;;;;16.73;91.60;99913.84;5131685;28;20055;-60
2022/05/09 05:10:53;;;;;;;2.28;1.00;;;;;;;17.18;91.27;99915.28;5131896;28;20062;-60
2022/05/09 05:13:19;;;;;;;1.35;1.00;;;;;;;17.33;88.63;99932.75;5131867;28;20043;-60
2022/05/09 05:15:47;;;;;;;0.70;0.70;;;;;;;17.17;86.95;99939.41;5131596;28;20099;-60
2022/05/09 05:18:14;;;;;;;2.38;1.15;;;;;;;16.63;87.06;99940.34;5131697;28;20407;-60
2022/05/09 05:20:40;;;;;;;1.92;0.93;;;;;;;16.60;90.33;99930.03;5131243;28;20510;-60
2022/05/09 05:23:07;;;;;;;2.17;1.02;;;;;;;16.59;89.39;99933.97;5131342;28;20439;-60
2022/05/09 05:25:33;;;;;;;3.15;1.20;;;;;;;16.68;87.43;99940.75;5131530;28;20051;-60
2022/05/09 05:27:59;;;;;;;4.00;1.00;;;;;;;17.04;85.97;99940.16;5131501;28;20054;-60
2022/05/09 05:30:26;;;;;;;1.58;1.05;;;;;;;17.52;87.30;99937.91;5131619;28;20046;-60
2022/05/09 05:32:55;;;;;;;3.13;1.27;;;;;;;17.84;82.75;99948.31;5131297;28;20120;-60
2022/05/09 05:35:24;;;;;;;2.03;1.25;;;;;;;17.35;80.37;99961.63;5131627;28;20047;-60
2022/05/09 05:37:50;;;;;;;0.82;0.77;;;;;;;17.03;82.23;99955.19;5131354;28;20051;-60
2022/05/09 05:40:17;;;;;;;6.75;1.42;;;;;;;17.32;81.63;99945.78;5131269;28;20081;-60
2022/05/09 05:42:45;;;;;;;1.10;1.00;;;;;;;17.38;80.51;99955.31;5131110;28;20506;-60
2022/05/09 05:45:13;;;;;;;1.95;1.10;;;;;;;17.73;78.84;99975.22;5131221;28;20099;-60
2022/05/09 05:47:39;;;;;;;4.30;1.30;;;;;;;17.90;78.32;99973.69;5131051;28;20119;-61
2022/05/09 05:50:10;;;;;;;4.25;1.38;;;;;;;18.41;81.84;99962.16;5130912;28;20050;-60
2022/05/09 05:52:36;;;;;;;0.98;0.82;;;;;;;18.49;78.79;99971.25;5131625;28;20426;-60
2022/05/09 05:55:03;;;;;;;2.75;1.10;;;;;;;18.77;75.40;99984.34;5131060;28;20078;-60
2022/05/09 05:57:31;;;;;;;1.05;0.80;;;;;;;19.10;76.53;99983.06;5131368;28;20455;-60
2022/05/09 06:00:00;;;;;;;1.27;1.10;;;;;;;18.77;74.95;99999.03;5130900;27;20051;-61
2022/05/09 06:02:27;;;;;;;2.53;1.40;;;;;;;19.22;74.73;99990.94;5131246;28;20054;-60
2022/05/09 06:04:54;;;;;;;1.70;1.13;;;;;;;19.77;76.12;99991.50;5131021;28;20058;-60
2022/05/09 06:07:24;;;;;;;1.20;1.10;;;;;;;19.53;72.95;99999.53;5131223;28;20050;-60
2022/05/09 06:09:52;;;;;;;1.55;1.05;;;;;;;19.01;73.58;100002.13;5122933;28;20055;-60
2022/05/09 06:12:22;;;;;;;3.70;0.90;;;;;;;18.78;71.69;100008.16;5130678;28;20047;-60
2022/05/09 06:15:24;;;;;;;2.63;0.82;;;;;;;18.55;74.03;100001.00;5130740;28;20051;-60
2022/05/09 06:17:36;;;;;;;1.23;1.10;;;;;;;18.88;72.86;100003.75;5130531;28;20535;-60
2022/05/09 06:20:04;;;;;;;4.43;1.02;;;;;;;18.99;74.06;100004.50;5130644;28;20043;-60
2022/05/09 06:22:31;;;;;;;1.10;0.90;;;;;;;18.56;71.98;100010.94;5130509;28;20058;-60
2022/05/09 06:24:58;;;;;;;1.27;1.10;;;;;;;18.59;70.64;100009.31;5130818;28;20141;-60
2022/05/09 06:27:24;;;;;;;3.03;1.15;;;;;;;18.58;70.77;100016.09;5130490;28;20051;-60
2022/05/09 06:29:50;;;;;;;1.55;1.20;;;;;;;18.74;71.32;100024.81;5130765;28;20054;-60
2022/05/09 06:32:18;;;;;;;1.10;1.00;;;;;;;18.72;71.19;100010.53;5130466;28;20063;-60
2022/05/09 06:34:45;;;;;;;1.83;1.13;;;;;;;18.73;72.91;100019.69;5130631;28;20087;-60
2022/05/09 06:37:11;;;;;;;3.40;0.90;;;;;;;18.59;72.87;100014.88;5130561;28;20055;-61
2022/05/09 06:39:38;;;;;;;1.58;1.00;;;;;;;18.85;68.09;100027.56;5130322;28;20051;-61
2022/05/09 06:42:05;;;;;;;3.22;1.10;;;;;;;18.96;67.05;100025.59;5130302;28;20047;-61
2022/05/09 06:44:31;;;;;;;1.52;0.98;;;;;;;18.70;67.20;100032.34;5130492;28;20069;-60
2022/05/09 06:46:57;;;;;;;2.55;1.20;;;;;;;18.62;69.10;100035.50;5130512;28;20055;-61
2022/05/09 06:49:23;;;;;;;3.50;1.30;;;;;;;19.19;67.23;100032.63;5130236;28;20043;-60
2022/05/09 06:51:49;;;;;;;2.05;1.13;;;;;;;19.28;67.54;100033.00;5130413;28;20051;-60
2022/05/09 06:54:20;;;;;;;1.20;1.00;;;;;;;19.17;63.93;100033.06;5130175;28;20054;-60
2022/05/09 06:56:47;;;;;;;1.98;1.35;;;;;;;19.14;64.87;100033.84;5130445;28;20055;-61
2022/05/09 06:59:13;;;;;;;2.05;1.00;;;;;;;19.11;64.66;100045.00;5130187;28;20498;-60
2022/05/09 07:01:39;;;;;;;1.33;1.23;;;;;;;18.84;66.80;100041.88;5130048;28;20051;-60
2022/05/09 07:04:06;;;;;;;1.70;1.17;;;;;;;18.54;66.81;100054.97;5130108;28;20047;-60
2022/05/09 07:06:32;;;;;;;1.75;1.20;;;;;;;18.53;68.58;100044.25;5130074;28;20425;-60
2022/05/09 07:08:58;;;;;;;2.08;1.15;;;;;;;18.96;65.98;100047.81;5130004;28;20077;-60
2022/05/09 07:11:24;;;;;;;3.50;1.17;;;;;;;19.22;63.87;100054.06;5129915;27;20043;-60
2022/05/09 07:13:51;;;;;;;1.02;0.85;;;;;;;18.75;66.38;100051.41;5133715;28;20051;-60
2022/05/09 07:16:17;;;;;;;1.92;1.20;;;;;;;18.62;68.96;100046.63;5133628;28;20047;-61
2022/05/09 07:18:43;;;;;;;1.63;1.25;;;;;;;19.34;67.13;100052.84;5133896;28;20499;-60
2022/05/09 07:21:10;;;;;;;2.25;1.08;;;;;;;19.80;66.14;100054.69;5133558;28;20047;-60
2022/05/09 07:23:37;;;;;;;4.57;1.58;;;;;;;19.32;64.13;100061.59;5133995;28;20063;-60
2022/05/09 07:26:03;;;;;;;1.58;1.40;;;;;;;19.51;66.19;100065.91;5133495;28;20051;-60
2022/05/09 07:28:30;;;;;;;0.95;0.90;;;;;;;19.65;66.15;100063.06;5133195;28;20047;-61
2022/05/09 07:30:57;;;;;;;1.20;1.10;;;;;;;18.77;65.79;100060.13;5133334;28;20058;-60
2022/05/09 07:33:23;;;;;;;1.73;1.15;;;;;;;18.67;67.95;100057.34;5133479;28;20048;-61
2022/05/09 07:35:50;;;;;;;2.53;1.10;;;;;;;18.67;67.30;100066.47;5133382;28;20050;-60
2022/05/09 07:38:16;;;;;;;1.58;1.27;;;;;;;19.71;67.72;100058.69;5133041;28;20058;-61
2022/05/09 07:40:45;;;;;;;3.03;1.55;;;;;;;19.98;63.88;100061.69;5133177;28;20054;-60
2022/05/09 07:43:14;;;;;;;5.15;1.30;;;;;;;20.39;64.42;100051.88;5133064;28;20108;-61
2022/05/09 07:45:42;;;;;;;3.05;1.20;;;;;;;20.35;63.53;100057.47;5133515;28;20051;-61
2022/05/09 07:48:10;;;;;;;4.43;1.20;;;;;;;20.79;65.31;100058.72;5133020;28;20104;-61
2022/05/09 07:50:37;;;;;;;1.83;1.25;;;;;;;21.04;65.02;100061.25;5132713;28;20043;-60
2022/05/09 07:53:08;;;;;;;2.97;1.30;;;;;;;20.91;63.44;100071.34;5132814;28;20510;-61
2022/05/09 07:55:34;;;;;;;3.05;1.10;;;;;;;20.65;59.90;100076.34;5132929;28;20058;-61
2022/05/09 07:58:01;;;;;;;1.33;1.23;;;;;;;21.26;63.41;100070.19;5132864;28;20047;-61
2022/05/09 08:00:27;;;;;;;1.95;1.05;;;;;;;21.58;60.09;100067.03;5132914;28;20051;-61
2022/05/09 08:02:53;;;;;;;2.72;1.17;;;;;;;20.86;56.12;100067.03;5132749;28;20051;-61
2022/05/09 08:05:20;;;;;;;1.75;1.23;;;;;;;19.82;59.05;100068.97;5132777;28;20097;-60
2022/05/09 08:07:47;;;;;;;1.90;1.27;;;;;;;19.16;60.55;100059.28;5132916;28;20047;-61
2022/05/09 08:10:15;;;;;;;3.05;1.40;;;;;;;19.05;60.85;100066.81;5132576;28;20054;-61
2022/05/09 08:12:41;;;;;;;1.52;1.15;;;;;;;19.40;60.70;100067.94;5132919;28;20092;-61
2022/05/09 08:15:10;;;;;;;1.92;1.30;;;;;;;19.68;60.32;100064.25;5132704;28;20048;-61
2022/05/09 08:17:36;;;;;;;1.20;1.10;;;;;;;19.85;61.26;100068.16;5132726;28;20077;-61
2022/05/09 08:20:03;;;;;;;1.85;1.20;;;;;;;20.29;61.10;100070.25;5132411;28;20047;-61
2022/05/09 08:22:31;;;;;;;1.73;1.10;;;;;;;20.34;61.10;100061.47;5132573;27;20047;-60
2022/05/09 08:24:59;;;;;;;3.00;1.20;;;;;;;19.93;60.33;100067.72;5131406;28;20520;-61
2022/05/09 08:27:25;;;;;;;2.83;1.30;;;;;;;20.18;61.72;100063.97;5132589;28;20480;-61
2022/05/09 08:29:54;;;;;;;1.98;1.10;;;;;;;19.73;61.94;100070.19;5132395;28;20047;-60
2022/05/09 08:32:20;;;;;;;1.42;1.20;;;;;;;19.78;62.13;100062.63;5132306;28;20104;-61
2022/05/09 08:34:46;;;;;;;4.60;1.13;;;;;;;19.88;62.25;100072.91;5132299;28;20055;-61
2022/05/09 08:37:14;;;;;;;1.17;1.08;;;;;;;19.37;62.09;100066.75;5132370;28;20055;-61
2022/05/09 08:39:40;;;;;;;1.33;1.02;;;;;;;19.73;62.86;100061.06;5132463;28;20552;-61
2022/05/09 08:42:08;;;;;;;1.88;1.20;;;;;;;19.91;57.86;100069.31;5132029;28;20059;-61
2022/05/09 08:45:03;;;;;;;3.85;0.88;;;;;;;19.91;61.56;100047.84;5132017;28;20055;-61
2022/05/09 08:48:03;;;;;;;2.78;1.20;;;;;;;19.66;60.02;100061.91;5132202;28;20058;-61
2022/05/09 08:50:42;;;;;;;0.73;0.73;;;;;;;19.66;59.81;100059.13;5132020;28;20426;-61
2022/05/09 08:53:11;;;;;;;1.10;1.00;;;;;;;19.90;61.91;100067.72;5132162;28;20055;-61
2022/05/09 08:55:40;;;;;;;1.23;1.08;;;;;;;20.38;59.84;100075.34;5131966;28;20043;-61
2022/05/09 08:58:19;;;;;;;1.38;1.10;;;;;;;20.76;60.65;100075.47;5132088;28;20051;-60
2022/05/09 09:00:47;;;;;;;2.00;1.10;;;;;;;21.03;59.13;100070.03;5131867;28;20055;-61
2022/05/09 09:03:24;;;;;;;2.88;1.08;;;;;;;20.32;57.43;100079.78;5131789;28;20073;-61
2022/05/09 09:05:53;;;;;;;2.03;1.48;;;;;;;20.26;57.58;100073.88;5131627;28;20047;-61
2022/05/09 09:08:27;;;;;;;1.27;1.05;;;;;;;19.52;58.20;100078.59;5131863;28;20065;-61
2022/05/09 09:11:08;;;;;;;6.28;1.20;;;;;;;19.60;57.13;100084.94;5131878;28;20047;-61
2022/05/09 09:13:48;;;;;;;1.65;1.10;;;;;;;19.73;59.42;100081.31;5131779;28;20051;-60
2022/05/09 09:16:23;;;;;;;4.07;1.25;;;;;;;19.67;56.84;100076.59;5131860;28;20077;-60
2022/05/09 09:19:04;;;;;;;1.10;1.05;;;;;;;19.42;55.28;100083.00;5131593;28;20104;-60
2022/05/09 09:21:43;;;;;;;1.40;1.30;;;;;;;19.32;57.55;100074.69;5131537;28;20047;-61
2022/05/09 09:24:31;;;;;;;1.40;1.10;;;;;;;19.07;59.06;100075.56;5131630;28;20054;-60
2022/05/09 09:27:10;;;;;;;2.95;1.10;;;;;;;19.47;59.01;100079.81;5131364;28;20054;-60
2022/05/09 09:29:44;;;;;;;1.38;1.10;;;;;;;19.66;59.34;100075.81;5131585;28;20047;-60
2022/05/09 09:32:13;;;;;;;4.90;1.65;;;;;;;18.93;62.94;100078.38;5131236;28;20051;-60
2022/05/09 09:34:58;;;;;;;3.22;1.25;;;;;;;18.68;59.13;100068.03;5130722;27;20051;-60
2022/05/09 09:37:35;;;;;;;3.05;1.13;;;;;;;18.75;65.03;100064.50;5131240;28;20399;-60
2022/05/09 09:40:02;;;;;;;1.95;1.30;;;;;;;19.49;63.70;100057.97;5131433;28;20054;-60
2022/05/09 09:42:30;;;;;;;1.65;1.02;;;;;;;19.73;62.83;100061.06;5131369;28;20485;-60
2022/05/09 09:44:58;;;;;;;1.20;1.10;;;;;;;19.87;64.01;100054.63;5131392;28;20439;-60
2022/05/09 09:47:26;;;;;;;2.95;1.20;;;;;;;19.97;65.41;100054.56;5131226;28;20077;-60
2022/05/09 09:50:13;;;;;;;2.47;1.15;;;;;;;19.03;67.75;100056.13;5131087;28;20054;-60
2022/05/09 09:52:43;;;;;;;1.48;1.00;;;;;;;18.64;68.77;100055.34;5131062;28;20055;-60
2022/05/09 09:55:25;;;;;;;1.55;1.27;;;;;;;19.16;65.99;100055.69;5131138;28;20518;-60
2022/05/09 09:57:53;;;;;;;3.22;1.00;;;;;;;18.79;65.48;100054.97;5130760;28;20062;-60
2022/05/09 10:00:21;;;;;;;1.38;1.10;;;;;;;18.91;67.56;100058.53;5131191;28;20055;-60
2022/05/09 10:02:49;;;;;;;4.45;1.13;;;;;;;19.31;64.00;100062.00;5130897;28;20425;-61
2022/05/09 10:05:18;;;;;;;1.73;1.63;;;;;;;19.51;64.50;100060.34;5131006;28;20043;-60
2022/05/09 10:07:45;;;;;;;1.20;0.88;;;;;;;19.84;64.63;100058.22;5130884;28;20047;-60
2022/05/09 10:10:14;;;;;;;3.60;1.10;;;;;;;20.06;63.98;100059.69;5130571;28;20049;-60
2022/05/09 10:12:44;;;;;;;1.83;1.00;;;;;;;19.45;62.86;100065.50;5131005;28;20620;-60
2022/05/09 10:15:34;;;;;;;0.85;0.85;;;;;;;19.13;62.34;100048.16;5130998;28;20074;-60
2022/05/09 10:18:17;;;;;;;1.73;1.33;;;;;;;19.21;62.22;100060.84;5125921;28;20101;-60
2022/05/09 10:20:44;;;;;;;1.30;1.20;;;;;;;19.07;64.08;100052.56;5130956;28;20468;-60
2022/05/09 10:26:05;;;;;;;1.77;1.00;;;;;;;17.60;62.57;100052.41;5130785;28;20050;-61
2022/05/09 10:28:36;;;;;;;3.08;1.00;;;;;;;17.55;63.56;100050.00;5130579;28;20053;-61
2022/05/09 10:31:14;;;;;;;0.77;0.77;;;;;;;17.47;63.89;100042.84;5130613;28;20418;-61
2022/05/09 10:33:48;;;;;;;1.88;1.30;;;;;;;17.10;63.97;100049.41;5130604;28;20043;-60
2022/05/09 10:36:20;;;;;;;3.70;0.70;;;;;;;16.54;64.45;100042.28;5130718;28;20055;-61
2022/05/09 10:38:50;;;;;;;1.55;0.93;;;;;;;16.53;69.24;100038.72;5130471;28;20066;-61
2022/05/09 10:41:25;;;;;;;2.53;1.30;;;;;;;16.73;71.21;100033.72;5130459;28;20062;-60
2022/05/09 10:43:57;;;;;;;1.25;0.77;;;;;;;16.99;74.36;100020.84;5130494;28;20047;-60
2022/05/09 10:46:37;;;;;;;2.67;1.08;;;;;;;17.33;72.15;100018.66;5130692;27;20054;-61
2022/05/09 10:49:11;;;;;;;1.40;0.90;;;;;;;17.04;68.09;100021.28;5134462;28;20043;-60
2022/05/09 10:51:48;;;;;;;2.53;0.82;;;;;;;17.28;71.16;100007.94;5133877;28;20062;-61
2022/05/09 10:54:18;;;;;;;2.47;0.90;;;;;;;17.54;72.81;100006.84;5133900;28;20108;-61
2022/05/09 10:56:50;;;;;;;2.75;1.42;;;;;;;18.07;70.10;100003.41;5133906;28;20111;-61
2022/05/09 10:59:21;;;;;;;1.60;1.33;;;;;;;17.78;68.77;100002.56;5133958;28;20065;-60
2022/05/09 11:01:56;;;;;;;1.27;1.00;;;;;;;17.13;69.59;100004.31;5125485;27;20051;-60
2022/05/09 11:04:24;;;;;;;2.88;1.10;;;;;;;16.92;69.67;100004.97;5133664;28;20120;-60
2022/05/09 11:06:59;;;;;;;1.33;1.23;;;;;;;16.75;70.46;99994.59;5133717;28;20051;-61
2022/05/09 11:09:41;;;;;;;3.00;1.08;;;;;;;16.28;71.79;99997.00;5133788;28;20055;-60
2022/05/09 11:12:29;;;;;;;4.30;1.17;;;;;;;16.01;71.70;99990.84;5133729;27;20395;-60
2022/05/09 11:15:06;;;;;;;5.80;0.90;;;;;;;15.69;70.19;99990.53;5133519;27;20418;-60
2022/05/09 11:17:49;;;;;;;2.70;0.95;;;;;;;16.05;71.60;99986.16;5133729;27;20528;-60
2022/05/09 11:20:23;;;;;;;0.70;0.70;;;;;;;16.19;71.88;99982.69;5133467;27;20043;-60
2022/05/09 11:22:58;;;;;;;1.47;1.03;;;;;;;15.93;71.04;99978.16;5133454;28;20357;-60
2022/05/09 11:25:46;;;;;;;1.27;0.80;;;;;;;15.77;70.74;99978.41;5133384;27;20768;-60
2022/05/09 11:28:36;;;;;;;1.15;0.80;;;;;;;15.90;67.26;99993.53;5133492;28;20055;-60
2022/05/09 11:31:13;;;;;;;2.05;0.88;;;;;;;15.82;67.47;99988.31;5133624;27;20422;-61
2022/05/09 11:33:56;;;;;;;1.98;1.00;;;;;;;15.71;67.97;99989.00;5133339;28;20411;-60
2022/05/09 11:36:39;;;;;;;1.90;0.70;;;;;;;15.65;66.90;99992.44;5133360;27;20054;-61
2022/05/09 11:39:14;;;;;;;1.40;0.80;;;;;;;15.44;67.48;99987.50;5133470;27;20067;-60
2022/05/09 11:41:52;;;;;;;1.73;0.80;;;;;;;15.33;70.03;99973.56;5133171;27;20055;-60
2022/05/09 11:44:20;;;;;;;0.80;0.80;;;;;;;15.21;70.57;99968.28;5133227;28;20047;-60
2022/05/09 11:47:18;;;;;;;2.03;1.17;;;;;;;15.38;68.99;99978.72;5133233;27;20074;-60